createdAt,value
2017-11-24T00:02:04.960Z,60.20
2017-11-24T00:04:32.572Z,59.70
2017-11-24T00:07:00.604Z,59.70
2017-11-24T00:09:29.391Z,60.00
2017-11-24T00:11:57.519Z,59.70
2017-11-24T00:14:26.711Z,59.60
2017-11-24T00:16:54.406Z,60.30
2017-11-24T00:19:23.155Z,60.60
2017-11-24T00:21:52.214Z,60.30
2017-11-24T00:24:21.244Z,60.50
2017-11-24T00:26:49.560Z,60.90
2017-11-24T00:29:18.807Z,60.10
2017-11-24T00:31:47.141Z,59.90
2017-11-24T00:34:15.627Z,60.10
2017-11-24T00:36:43.567Z,60.10
2017-11-24T00:39:11.861Z,60.10
2017-11-24T00:41:40.771Z,60.00
2017-11-24T00:44:08.880Z,59.90
2017-11-24T00:46:37.347Z,60.00
2017-11-24T00:49:05.586Z,59.90
2017-11-24T00:51:34.255Z,60.20
2017-11-24T00:54:02.544Z,59.80
2017-11-24T00:56:30.484Z,60.10
2017-11-24T00:58:58.821Z,60.30
2017-11-24T01:01:27.143Z,60.40
2017-11-24T01:03:55.466Z,60.40
2017-11-24T01:06:23.766Z,60.00
2017-11-24T01:08:52.948Z,59.80
2017-11-24T01:11:20.477Z,59.80
2017-11-24T01:13:49.902Z,60.40
2017-11-24T01:16:17.430Z,60.20
2017-11-24T01:18:45.358Z,60.40
2017-11-24T01:21:13.646Z,60.50
2017-11-24T01:23:42.580Z,60.10
2017-11-24T01:26:10.502Z,60.40
2017-11-24T01:28:38.813Z,61.50
2017-11-24T01:31:07.847Z,62.90
2017-11-24T01:33:36.230Z,62.70
2017-11-24T01:36:03.925Z,61.80
2017-11-24T01:38:32.247Z,61.40
2017-11-24T01:41:01.278Z,61.70
2017-11-24T01:43:29.428Z,60.70
2017-11-24T01:45:57.342Z,61.00
2017-11-24T01:48:25.651Z,61.00
2017-11-24T01:50:54.680Z,61.60
2017-11-24T01:53:23.067Z,61.80
2017-11-24T01:55:50.749Z,61.20
2017-11-24T01:58:19.980Z,61.10
2017-11-24T02:00:48.278Z,61.10
2017-11-24T02:03:15.851Z,61.00
2017-11-24T02:05:44.495Z,60.70
2017-11-24T02:08:12.436Z,60.80
2017-11-24T02:10:40.883Z,60.60
2017-11-24T02:13:09.083Z,60.70
2017-11-24T02:15:37.379Z,60.70
2017-11-24T02:18:05.684Z,61.20
2017-11-24T02:20:34.196Z,61.10
2017-11-24T02:23:03.039Z,60.80
2017-11-24T02:25:31.032Z,60.90
2017-11-24T02:27:59.052Z,60.90
2017-11-24T02:30:27.460Z,61.00
2017-11-24T02:32:56.311Z,60.80
2017-11-24T02:35:24.249Z,60.70
2017-11-24T02:37:52.658Z,60.70
2017-11-24T02:40:20.603Z,60.70
2017-11-24T02:42:49.349Z,60.40
2017-11-24T02:45:17.287Z,60.40
2017-11-24T02:47:44.973Z,60.30
2017-11-24T02:50:12.570Z,60.40
2017-11-24T02:52:41.112Z,60.60
2017-11-24T02:55:09.482Z,60.70
2017-11-24T02:57:39.421Z,60.90
2017-11-24T03:00:07.491Z,60.90
2017-11-24T03:02:36.432Z,60.90
2017-11-24T03:05:04.756Z,60.80
2017-11-24T03:07:32.808Z,60.80
2017-11-24T03:10:00.743Z,60.80
2017-11-24T03:12:29.994Z,60.60
2017-11-24T03:14:57.580Z,60.20
2017-11-24T03:17:25.885Z,60.30
2017-11-24T03:19:55.255Z,60.40
2017-11-24T03:22:23.623Z,60.80
2017-11-24T03:24:53.245Z,60.90
2017-11-24T03:27:21.380Z,60.50
2017-11-24T03:29:48.934Z,60.10
2017-11-24T03:32:17.443Z,60.60
2017-11-24T03:34:46.021Z,60.10
2017-11-24T03:37:13.984Z,60.50
2017-11-24T03:39:42.352Z,60.60
2017-11-24T03:42:10.640Z,60.40
2017-11-24T03:44:40.360Z,60.10
2017-11-24T03:47:09.395Z,61.00
2017-11-24T03:49:37.129Z,61.30
2017-11-24T03:52:05.467Z,61.40
2017-11-24T03:54:33.983Z,60.90
2017-11-24T03:57:03.141Z,61.70
2017-11-24T03:59:35.598Z,61.50
2017-11-24T04:02:03.371Z,62.00
2017-11-24T04:04:31.298Z,61.90
2017-11-24T04:07:00.184Z,61.80
2017-11-24T04:09:28.108Z,63.20
2017-11-24T04:11:56.693Z,63.20
2017-11-24T04:14:26.649Z,63.00
2017-11-24T04:16:54.212Z,62.40
2017-11-24T04:19:21.734Z,62.30
2017-11-24T04:21:49.878Z,62.10
2017-11-24T04:24:18.003Z,62.30
2017-11-24T04:26:46.346Z,62.10
2017-11-24T04:29:14.859Z,61.40
2017-11-24T04:31:42.924Z,61.10
2017-11-24T04:34:10.951Z,61.10
2017-11-24T04:36:38.499Z,61.80
2017-11-24T04:39:06.729Z,62.00
2017-11-24T04:41:35.041Z,61.50
2017-11-24T04:44:03.325Z,60.70
2017-11-24T04:46:31.644Z,61.00
2017-11-24T04:49:00.438Z,61.80
2017-11-24T04:51:28.380Z,62.10
2017-11-24T04:54:03.565Z,61.20
2017-11-24T04:56:31.430Z,61.70
2017-11-24T04:58:59.191Z,61.80
2017-11-24T05:01:28.042Z,62.00
2017-11-24T05:03:55.907Z,61.70
2017-11-24T05:06:24.519Z,61.20
2017-11-24T05:08:52.964Z,61.80
2017-11-24T05:11:21.307Z,62.50
2017-11-24T05:13:49.088Z,62.40
2017-11-24T05:16:31.034Z,61.90
2017-11-24T05:18:59.976Z,62.30
2017-11-24T05:21:29.569Z,61.80
2017-11-24T05:23:57.486Z,62.80
2017-11-24T05:26:25.811Z,62.60
2017-11-24T05:28:54.553Z,62.20
2017-11-24T05:31:22.802Z,62.30
2017-11-24T05:33:51.553Z,62.30
2017-11-24T05:36:19.086Z,61.90
2017-11-24T05:41:17.376Z,62.10
2017-11-24T05:43:45.732Z,61.80
2017-11-24T05:46:15.040Z,62.10
2017-11-24T05:48:43.719Z,61.80
2017-11-24T05:51:12.009Z,62.10
2017-11-24T05:53:41.180Z,61.60
2017-11-24T05:56:08.712Z,62.10
2017-11-24T05:58:37.878Z,62.00
2017-11-24T06:01:05.538Z,61.80
2017-11-24T06:03:34.937Z,62.50
2017-11-24T06:06:02.497Z,62.40
2017-11-24T06:08:32.422Z,63.60
2017-11-24T06:11:00.347Z,62.90
2017-11-24T06:13:28.662Z,62.90
2017-11-24T06:15:57.771Z,63.50
2017-11-24T06:18:25.799Z,62.90
2017-11-24T06:20:53.816Z,62.80
2017-11-24T06:23:23.774Z,62.90
2017-11-24T06:25:51.706Z,62.60
2017-11-24T06:28:20.025Z,62.60
2017-11-24T06:30:48.313Z,62.80
2017-11-24T06:33:16.682Z,62.70
2017-11-24T06:35:44.964Z,62.70
2017-11-24T06:38:13.791Z,62.90
2017-11-24T06:40:42.449Z,62.90
2017-11-24T06:43:10.028Z,62.60
2017-11-24T06:45:38.328Z,62.50
2017-11-24T06:48:06.707Z,62.20
2017-11-24T06:50:34.986Z,62.10
2017-11-24T06:53:04.595Z,61.90
2017-11-24T06:55:32.111Z,62.10
2017-11-24T07:07:17.288Z,64.30
2017-11-24T07:09:55.016Z,66.10
2017-11-24T07:12:31.004Z,64.10
2017-11-24T07:14:58.946Z,64.50
2017-11-24T07:17:47.111Z,63.90
2017-11-24T07:20:25.879Z,63.70
2017-11-24T07:23:11.271Z,63.90
2017-11-24T07:39:21.703Z,54.50
2017-11-24T07:41:49.995Z,53.70
2017-11-24T07:44:19.351Z,53.00
2017-11-24T07:46:47.614Z,52.60
2017-11-24T07:49:15.539Z,52.00
2017-11-24T07:51:43.499Z,52.30
2017-11-24T07:54:11.823Z,52.50
2017-11-24T07:56:40.127Z,52.30
2017-11-24T07:59:08.803Z,51.90
2017-11-24T08:01:38.029Z,51.80
2017-11-24T08:04:06.356Z,51.70
2017-11-24T08:06:34.027Z,51.50
2017-11-24T08:09:02.883Z,51.30
2017-11-24T08:11:30.481Z,51.60
2017-11-24T08:13:58.992Z,52.40
2017-11-24T08:16:26.984Z,53.40
2017-11-24T08:18:56.655Z,54.40
2017-11-24T08:21:24.949Z,54.90
2017-11-24T08:23:53.512Z,55.30
2017-11-24T08:26:21.687Z,55.50
2017-11-24T08:29:00.339Z,56.20
2017-11-24T08:31:29.817Z,56.70
2017-11-24T08:34:06.879Z,56.70
2017-11-24T08:36:34.615Z,56.40
2017-11-24T08:39:18.449Z,56.30
2017-11-24T08:41:47.779Z,55.90
2017-11-24T08:44:16.096Z,55.80
2017-11-24T08:46:51.518Z,55.80
2017-11-24T08:49:26.130Z,55.80
2017-11-24T08:51:53.658Z,55.80
2017-11-24T08:54:21.962Z,55.60
2017-11-24T08:56:50.374Z,55.30
2017-11-24T08:59:19.794Z,55.20
2017-11-24T09:01:49.302Z,56.10
2017-11-24T09:04:17.649Z,55.00
2017-11-24T09:06:45.243Z,55.00
2017-11-24T09:09:13.273Z,54.90
2017-11-24T09:11:41.576Z,54.80
2017-11-24T09:14:11.573Z,55.00
2017-11-24T09:16:40.707Z,54.60
2017-11-24T09:19:09.015Z,54.40
2017-11-24T09:21:38.610Z,53.80
2017-11-24T09:24:07.056Z,53.90
2017-11-24T09:26:34.618Z,53.90
2017-11-24T09:29:02.907Z,53.70
2017-11-24T09:31:31.409Z,54.00
2017-11-24T09:33:59.348Z,53.70
2017-11-24T09:36:27.735Z,54.00
2017-11-24T09:38:56.682Z,53.10
2017-11-24T09:41:25.868Z,53.20
2017-11-24T09:43:54.155Z,52.60
2017-11-24T09:46:22.567Z,52.20
2017-11-24T09:48:53.309Z,52.10
2017-11-24T09:51:22.292Z,51.50
2017-11-24T09:53:50.207Z,51.30
2017-11-24T09:56:18.512Z,51.50
2017-11-24T09:58:46.044Z,51.00
2017-11-24T10:01:13.976Z,50.90
2017-11-24T10:03:42.514Z,51.00
2017-11-24T10:06:12.314Z,51.00
2017-11-24T10:08:40.645Z,51.00
2017-11-24T10:11:09.025Z,50.60
2017-11-24T10:13:37.906Z,50.40
2017-11-24T10:16:06.435Z,51.00
2017-11-24T10:18:34.922Z,49.90
2017-11-24T10:21:10.437Z,49.30
2017-11-24T10:23:40.443Z,48.90
2017-11-24T10:26:08.593Z,47.90
2017-11-24T10:28:36.882Z,47.80
2017-11-24T10:31:05.878Z,47.20
2017-11-24T10:33:33.453Z,46.20
2017-11-24T10:36:02.663Z,45.60
2017-11-24T10:38:30.204Z,45.40
2017-11-24T10:40:57.758Z,44.90
2017-11-24T10:43:25.691Z,44.10
2017-11-24T10:45:53.980Z,43.80
2017-11-24T10:48:23.933Z,43.60
2017-11-24T10:50:52.502Z,42.80
2017-11-24T10:53:22.126Z,42.40
2017-11-24T10:55:50.041Z,42.00
2017-11-24T10:58:18.339Z,41.60
2017-11-24T11:00:47.965Z,40.60
2017-11-24T11:03:16.275Z,40.00
2017-11-24T11:05:43.796Z,39.50
2017-11-24T11:08:12.488Z,39.40
2017-11-24T11:10:40.029Z,39.70
2017-11-24T11:13:09.607Z,40.30
2017-11-24T11:15:37.905Z,40.70
2017-11-24T11:18:05.841Z,40.60
2017-11-24T11:20:33.367Z,40.30
2017-11-24T11:23:01.732Z,38.90
2017-11-24T11:25:29.762Z,39.20
2017-11-24T11:27:58.075Z,39.30
2017-11-24T11:30:26.005Z,38.60
2017-11-24T11:32:54.737Z,38.60
2017-11-24T11:35:22.663Z,38.30
2017-11-24T11:37:50.974Z,37.80
2017-11-24T11:40:18.900Z,38.50
2017-11-24T11:42:47.223Z,39.50
2017-11-24T11:45:15.680Z,39.50
2017-11-24T11:47:44.256Z,40.70
2017-11-24T11:50:12.723Z,41.30
2017-11-24T11:52:40.699Z,41.50
2017-11-24T11:55:11.338Z,42.40
2017-11-24T11:57:39.048Z,42.60
2017-11-24T12:00:07.085Z,41.50
2017-11-24T12:02:35.984Z,41.20
2017-11-24T12:05:03.918Z,40.60
2017-11-24T12:07:32.215Z,40.20
2017-11-24T12:10:00.679Z,40.80
2017-11-24T12:12:28.994Z,40.60
2017-11-24T12:14:56.943Z,41.00
2017-11-24T12:17:26.027Z,40.80
2017-11-24T12:19:53.961Z,42.10
2017-11-24T12:22:22.251Z,44.00
2017-11-24T12:24:50.588Z,42.70
2017-11-24T12:27:19.821Z,42.90
2017-11-24T12:29:48.639Z,43.30
2017-11-24T12:32:17.184Z,43.70
2017-11-24T12:34:46.507Z,43.70
2017-11-24T12:37:15.272Z,43.50
2017-11-24T12:39:43.205Z,43.50
2017-11-24T12:42:11.721Z,43.80
2017-11-24T12:44:40.048Z,43.90
2017-11-24T12:47:09.074Z,44.50
2017-11-24T12:49:37.398Z,44.60
2017-11-24T12:52:05.316Z,45.00
2017-11-24T12:54:33.272Z,45.30
2017-11-24T12:57:01.559Z,45.40
2017-11-24T12:59:29.985Z,47.60
2017-11-24T13:01:59.114Z,48.80
2017-11-24T13:04:27.059Z,49.10
2017-11-24T13:06:54.988Z,48.70
2017-11-24T13:09:23.307Z,48.90
2017-11-24T13:11:52.392Z,49.00
2017-11-24T13:14:19.920Z,49.00
2017-11-24T13:16:50.420Z,48.80
2017-11-24T13:19:18.629Z,48.90
2017-11-24T13:21:46.545Z,48.90
2017-11-24T13:24:16.180Z,48.50
2017-11-24T13:26:44.753Z,49.00
2017-11-24T13:29:12.796Z,49.10
2017-11-24T13:31:41.158Z,49.30
2017-11-24T13:34:09.717Z,49.80
2017-11-24T13:36:38.034Z,51.80
2017-11-24T13:39:06.329Z,52.40
2017-11-24T13:41:35.803Z,52.40
2017-11-24T13:44:04.148Z,52.20
2017-11-24T13:46:35.067Z,52.70
2017-11-24T13:49:02.606Z,53.00
2017-11-24T13:51:30.924Z,53.40
2017-11-24T13:53:59.941Z,54.50
2017-11-24T13:56:27.871Z,55.60
2017-11-24T13:58:55.915Z,56.20
2017-11-24T14:01:24.245Z,56.10
2017-11-24T14:03:52.691Z,55.90
2017-11-24T14:06:21.324Z,55.90
2017-11-24T14:08:49.276Z,56.10
2017-11-24T14:11:17.772Z,56.40
2017-11-24T14:13:45.723Z,57.50
2017-11-24T14:16:14.780Z,58.10
2017-11-24T14:18:42.400Z,59.00
2017-11-24T14:21:11.342Z,59.90
2017-11-24T14:23:39.370Z,60.40
2017-11-24T14:26:07.691Z,60.40
2017-11-24T14:28:36.740Z,61.20
2017-11-24T14:31:05.207Z,61.30
2017-11-24T14:33:32.722Z,61.50
2017-11-24T14:36:02.412Z,61.50
2017-11-24T14:38:30.707Z,61.60
2017-11-24T14:40:59.069Z,61.10
2017-11-24T14:43:26.797Z,61.00
2017-11-24T14:45:55.296Z,61.10
2017-11-24T14:48:28.611Z,61.60
2017-11-24T14:50:56.887Z,61.50
2017-11-24T14:53:25.183Z,61.60
2017-11-24T14:55:53.474Z,61.50
2017-11-24T14:58:22.987Z,61.40
2017-11-24T15:00:52.343Z,61.50
2017-11-24T15:03:19.894Z,61.70
2017-11-24T15:05:48.254Z,61.00
2017-11-24T15:08:16.577Z,61.50
2017-11-24T15:10:44.872Z,62.00
2017-11-24T15:13:13.194Z,61.90
2017-11-24T15:15:41.641Z,62.00
2017-11-24T15:18:10.008Z,61.40
2017-11-24T15:20:38.287Z,61.10
2017-11-24T15:23:08.144Z,60.90
2017-11-24T15:25:37.484Z,61.60
2017-11-24T15:28:05.031Z,61.90
2017-11-24T15:30:33.560Z,63.00
2017-11-24T15:33:01.920Z,64.00
2017-11-24T15:35:31.211Z,64.30
2017-11-24T15:37:59.488Z,63.80
2017-11-24T15:40:28.110Z,63.60
2017-11-24T15:42:55.668Z,63.60
2017-11-24T15:45:24.004Z,62.90
2017-11-24T15:47:51.946Z,63.90
2017-11-24T15:50:21.170Z,63.60
2017-11-24T15:52:48.716Z,63.80
2017-11-24T15:55:17.458Z,63.30
2017-11-24T15:57:45.432Z,62.70
2017-11-24T16:00:13.721Z,62.00
2017-11-24T16:02:44.315Z,62.70
2017-11-24T16:05:12.272Z,62.20
2017-11-24T16:07:40.787Z,61.60
2017-11-24T16:10:10.398Z,61.40
2017-11-24T16:12:39.375Z,61.60
2017-11-24T16:15:07.812Z,62.20
2017-11-24T16:17:35.485Z,61.20
2017-11-24T16:20:03.938Z,60.70
2017-11-24T16:22:31.883Z,60.30
2017-11-24T16:25:00.656Z,60.60
2017-11-24T16:27:29.506Z,60.50
2017-11-24T16:29:57.048Z,59.90
2017-11-24T16:32:27.174Z,60.90
2017-11-24T16:34:55.922Z,60.60
2017-11-24T16:37:25.398Z,60.40
2017-11-24T16:39:53.181Z,60.20
2017-11-24T16:42:21.471Z,60.20
2017-11-24T16:44:49.788Z,60.40
2017-11-24T16:47:18.074Z,61.20
2017-11-24T16:49:47.123Z,61.60
2017-11-24T16:52:14.643Z,62.00
2017-11-24T16:54:42.191Z,62.20
2017-11-24T16:57:10.626Z,62.30
2017-11-24T16:59:38.623Z,62.70
2017-11-24T17:02:06.549Z,62.40
2017-11-24T17:04:34.492Z,62.40
2017-11-24T17:07:02.351Z,62.10
2017-11-24T17:09:30.402Z,61.70
2017-11-24T17:11:58.837Z,61.70
2017-11-24T17:14:27.147Z,61.70
2017-11-24T17:16:56.457Z,62.00
2017-11-24T17:19:24.004Z,61.20
2017-11-24T17:21:51.925Z,60.80
2017-11-24T17:24:22.257Z,60.50
2017-11-24T17:26:50.190Z,60.30
2017-11-24T17:29:19.787Z,60.20
2017-11-24T17:31:48.926Z,59.90
2017-11-24T17:34:16.468Z,59.70
2017-11-24T17:36:45.791Z,59.40
2017-11-24T17:39:14.128Z,59.30
2017-11-24T17:41:43.376Z,59.30
2017-11-24T17:44:11.311Z,59.10
2017-11-24T17:46:39.603Z,59.10
2017-11-24T17:49:08.034Z,59.10
2017-11-24T17:51:36.352Z,59.00
2017-11-24T17:54:04.641Z,59.30
2017-11-24T17:56:33.757Z,59.50
2017-11-24T17:59:01.694Z,59.30
2017-11-24T18:01:31.229Z,58.80
2017-11-24T18:03:59.939Z,58.30
2017-11-24T18:06:27.869Z,58.50
2017-11-24T18:08:56.156Z,58.80
2017-11-24T18:11:25.126Z,58.80
2017-11-24T18:13:53.957Z,59.20
2017-11-24T18:16:22.272Z,59.10
2017-11-24T18:18:50.708Z,59.10
2017-11-24T18:21:19.248Z,59.40
2017-11-24T18:23:49.031Z,60.10
2017-11-24T18:26:18.419Z,59.80
2017-11-24T18:28:46.854Z,60.50
2017-11-24T18:31:14.396Z,60.40
2017-11-24T18:33:42.726Z,60.80
2017-11-24T18:36:10.673Z,60.90
2017-11-24T18:38:39.647Z,61.10
2017-11-24T18:41:07.585Z,61.60
2017-11-24T18:43:35.876Z,61.80
2017-11-24T18:46:04.360Z,62.50
2017-11-24T18:48:32.604Z,62.00
2017-11-24T18:51:00.910Z,62.30
2017-11-24T18:53:30.201Z,62.20
2017-11-24T18:56:04.101Z,62.20
2017-11-24T18:58:31.625Z,61.70
2017-11-24T19:00:59.571Z,61.60
2017-11-24T19:03:28.619Z,62.40
2017-11-24T19:05:56.909Z,62.20
2017-11-24T19:08:26.428Z,62.40
2017-11-24T19:10:54.454Z,64.40
2017-11-24T19:13:22.780Z,62.10
2017-11-24T19:15:51.799Z,61.60
2017-11-24T19:18:20.923Z,61.60
2017-11-24T19:20:49.224Z,61.30
2017-11-24T19:23:18.873Z,61.70
2017-11-24T19:25:49.123Z,62.10
2017-11-24T19:28:18.809Z,63.20
2017-11-24T19:30:46.726Z,63.00
2017-11-24T19:33:15.039Z,62.90
2017-11-24T19:35:43.356Z,63.00
2017-11-24T19:38:12.467Z,62.10
2017-11-24T19:40:40.000Z,61.80
2017-11-24T19:43:09.469Z,62.10
2017-11-24T19:45:37.133Z,62.20
2017-11-24T19:48:08.109Z,62.10
2017-11-24T19:50:39.062Z,62.90
2017-11-24T19:53:07.394Z,62.70
2017-11-24T19:55:38.336Z,62.70
2017-11-24T19:58:06.907Z,63.50
2017-11-24T20:00:35.190Z,63.10
2017-11-24T20:03:03.693Z,63.40
2017-11-24T20:05:33.851Z,63.60
2017-11-24T20:08:03.627Z,63.90
2017-11-24T20:10:31.925Z,64.40
2017-11-24T20:13:00.904Z,64.50
2017-11-24T20:15:38.799Z,65.10
2017-11-24T20:18:06.390Z,65.00
2017-11-24T20:20:36.752Z,65.50
2017-11-24T20:23:05.567Z,65.60
2017-11-24T20:25:34.217Z,65.80
2017-11-24T20:28:02.949Z,65.50
2017-11-24T20:30:31.432Z,66.00
2017-11-24T20:32:59.395Z,66.10
2017-11-24T20:35:31.651Z,66.40
2017-11-24T20:38:00.256Z,66.60
2017-11-24T20:43:03.448Z,67.00
2017-11-24T20:45:37.743Z,66.50
2017-11-24T20:48:08.163Z,66.70
2017-11-24T20:50:35.782Z,66.30
2017-11-24T20:53:12.306Z,66.00
2017-11-24T20:55:41.443Z,66.20
2017-11-24T20:58:09.693Z,66.20
2017-11-24T21:00:38.855Z,66.20
2017-11-24T21:03:07.118Z,66.40
2017-11-24T21:05:35.043Z,66.30
2017-11-24T21:08:04.443Z,66.20
2017-11-24T21:10:32.514Z,65.90
2017-11-24T21:13:00.691Z,65.70
2017-11-24T21:15:29.542Z,66.10
2017-11-24T21:17:57.462Z,65.70
2017-11-24T21:20:25.097Z,65.80
2017-11-24T21:22:53.531Z,66.20
2017-11-24T21:25:21.845Z,66.30
2017-11-24T21:27:49.546Z,66.60
2017-11-24T21:30:19.335Z,67.10
2017-11-24T21:32:47.257Z,67.40
2017-11-24T21:35:15.212Z,67.20
2017-11-24T21:37:44.557Z,67.50
2017-11-24T21:40:13.012Z,67.40
2017-11-24T21:42:40.917Z,67.60
2017-11-24T21:45:09.107Z,67.30
2017-11-24T21:47:38.196Z,67.40
2017-11-24T21:50:05.755Z,67.30
2017-11-24T21:52:33.848Z,67.60
2017-11-24T21:55:02.198Z,67.30
2017-11-24T21:57:30.623Z,67.20
2017-11-24T21:59:59.296Z,67.00
2017-11-24T22:02:26.819Z,66.80
2017-11-24T22:04:54.400Z,66.90
2017-11-24T22:07:22.689Z,66.80
2017-11-24T22:09:51.371Z,67.10
2017-11-24T22:12:19.760Z,66.90
2017-11-24T22:14:47.319Z,67.00
2017-11-24T22:17:15.950Z,67.10
2017-11-24T22:19:43.965Z,67.10
2017-11-24T22:22:13.182Z,67.00
2017-11-24T22:24:41.048Z,67.10
2017-11-24T22:27:09.437Z,66.90
2017-11-24T22:29:38.279Z,67.00
2017-11-24T22:32:07.407Z,67.00
2017-11-24T22:34:35.501Z,66.80
2017-11-24T22:37:03.836Z,67.00
2017-11-24T22:39:32.225Z,66.90
2017-11-24T22:42:00.508Z,66.80
2017-11-24T22:44:30.426Z,67.00
2017-11-24T22:47:00.159Z,66.90
2017-11-24T22:49:29.390Z,66.80
2017-11-24T22:51:56.914Z,66.80
2017-11-24T22:54:25.724Z,66.90
2017-11-24T22:56:53.719Z,67.00
2017-11-24T22:59:22.146Z,66.80
2017-11-24T23:01:50.155Z,66.60
2017-11-24T23:04:19.083Z,66.80
2017-11-24T23:06:47.575Z,66.60
2017-11-24T23:09:15.092Z,66.40
2017-11-24T23:11:43.421Z,67.10
2017-11-24T23:14:14.105Z,67.90
2017-11-24T23:16:42.391Z,67.70
2017-11-24T23:19:09.929Z,67.10
2017-11-24T23:21:39.126Z,67.20
2017-11-24T23:24:07.508Z,66.90
2017-11-24T23:26:35.064Z,66.70
2017-11-24T23:29:02.978Z,66.70
2017-11-24T23:31:31.239Z,66.80
2017-11-24T23:33:59.752Z,67.80
2017-11-24T23:36:28.515Z,67.70
2017-11-24T23:38:56.556Z,67.70
2017-11-24T23:41:26.961Z,67.90
2017-11-24T23:43:54.947Z,67.90
2017-11-24T23:46:23.789Z,68.10
2017-11-24T23:48:52.278Z,68.00
2017-11-24T23:51:19.819Z,67.50
2017-11-24T23:53:49.031Z,67.20
2017-11-24T23:56:17.517Z,67.00
2017-11-24T23:58:45.841Z,67.20
